熊本空港

2018/03/29

蔵出 あまくさ 天草飛行場 2001/2/25 sun

2000年3月から就航した天草エアライン。熊本のローカル航空会社ながら-8で天草への高速アクセスの手段として、発足しました。

20010224_0rjft_00sol

略称はAMXながらICAOコードは、AHX

20010224_0rjft_01ja81am

AHX204 RJFT-RJDA JA81AM DHC8-103

さて、歩いて搭乗です。

20010224_1rjda_02ja81am

天草空港へのアプローチ、天草大橋が見えました。

20010224_1rjda_03bil

天草空港到着

20010224_1rjda_04bil

こじんまりした空港ビルですが、以外と大きい。

20010224_1rjda_05rjda

周辺を歩くと全体を見渡せる場所へ

20010224_1rjda_06rjda

天草空港の全体図。山の上を削って作られています。

20010224_1rjda_07ake

天草VOR/DME(AKE)

20010224_1rjda_08ja81am

機体は、このJA81AMだけ。今では退役して新しいATRに変わっている。

20010224_1rjda_09ja81am

くまもんになる前のみぞか号

20010224_1rjda_10ja81am

この日は、RW13

20010224_1rjda_11ja81am

AHX105 RJDA-RJFF JA81AM DHC8-103

20010224_1rjda_12rjda

帰ってくるまで、また空港周辺を散策

20010224_1rjda_13rjda

RW31エンド

20010224_1rjda_14rjda

航空障害灯が

20010224_1rjda_15ja81am

AHX106 RJFF-RJDA JA81AM DHC8-103

20010224_1rjda_16ja81am

これに乗って福岡へ向かいます。

20010224_2rjff_17ja81am

AHX107 RJDA-RJFF JA81AM DHC8-103

福岡空港到着。ここでお泊りして茸狩します。

| | コメント (0) | トラックバック (0)

2018/03/26

蔵出 九州茸狩 熊本空港 2001/2/24 sat

東京は、冷たい雨。天候がすぐれません。着地も雨に霧。条件付きの運航です。

20010224_rjft_00rjtt

羽田の貨物地区にアトラスがいました。

20010224_rjft_01ja003d

JAS351 RJTT-RJFT JA003D MD90-30

CATⅢでの着陸でした。なぜか写真が傾いていました。

20010224_rjft_02ja8994

JEX692 RJFT-RJOO JA8994 B737-446

20010224_rjft_03ja8257

ANA641 RJTT-RJFT JA8257 B767-381

20010224_rjft_04ja8994

フラワージェットが水飛沫を上げて離陸していきます。

20010224_rjft_05ja003d

JAS352 RJFT-RJTT JA003D MD90-30

20010224_rjft_06ja8257

ANA524 RJFT-RJOO JA8257 B767-381

20010224_rjft_07ja81am

AHK201 RJDA-RJFT JA81AM DHC8-103

20010224_rjft_08ja8398

JAL193 RJTT-RJFT JA8398 B767-346

20010224_rjft_09bil

さて熊本空港ターミナルを出て・・

20010224_rjft_10ja8398

JAL194 RJFT-RJTT JA8398 B767-346

離陸してすぐ雲の中・・

20010224_rjft_11kue

空港の北側まで散歩して茸狩

20010224_rjft_12kue

熊本VOR/DME(KUE)

20010224_rjft_13vor

南側にVOR更新用の仮設VORが建設中

20010224_rjft_14jas

JAS353 RJTT-RJFT JAxxxx A300-600R

20010224_rjft_15ana

ANA97 RJFT-ROAH JAxxxx B767-381

これを見送って、ターミナルに戻ります。これから初搭乗です。

| | コメント (0) | トラックバック (0)

2015/03/10

残念 熊本空港 2015/2/19 thu

遠く天草まで出かけ一日「みぞか号」に乗りぱなしから、北陸新幹線カウントダウンをしてるうちに、月日が過ぎてしまいました。そうこうしてると、「天草エアライン就航15周年記念夢チャレ!AMX1日全便搭乗率100%祭!」の結果が出て、3席のドタキャン?によって100%に届かず。残念。また、新機材導入期間中の一部運航継続並びに新機材による就航スケジュールの概要について」  が、発表され・・ 日本エアコミューターとの協業とは・・・ JACのサーブが助っ人で飛ぶのかな? これからも目が話せない天草エアラインです。

さて、そんな天草からの帰路。本渡を朝一のバスで出発して、熊本空港到着は9時。ながーい! 搭乗までの小一時間の熊本空港です。

20150219_rjft_00aso

阿蘇熊本空港 これは、正統な名前ですね。

RJFT 190000Z 35004KT 270V050 6000 -SHRA BR BKN008 BKN010 03/02 Q1021

20150219_rjft_01ja322j

青組みのジャンボがラストできましたが、現在は、ほとんど小型ジェットです。

20150219_rjft_02ja807x

SNA11 RJTT-RJFT JA807X B737-81D

20150219_rjft_03ja8997

青組みはターミナル西側

20150219_rjft_04jg23054

JG23054 LR-2 W

20150219_rjft_05ja201j

CRJは、この位置までプッシュしてから自走

20150219_rjft_06ja8997

ANA332 RJFT-RJGG JA8997 A320-211

20150219_rjft_07ja201j

最近故障が多くなってるけど、MRJまでがんばってね。

 

20150219_rjft_08ja08fj

20150219_rjft_09ja08fj

FDA321 RJNA-RJFT JA08FJ ERJ-175STD

20150219_rjft_10ja201j

JAL2382 RJFT-RJOO JA201J CRJ-200ER

20150219_rjft_11ja322j

20150219_rjft_12ja322j

JAL1804 RJFT-RJTT JA322J B737-846

20150219_rjft_13ja11jj

我が搭乗機は、ジェットスター

20150219_rjft_14ja11jj

20150219_rjft_15ja11jj

JJP670 RJFT-RJBB JA11JJ A320-232

機内の人となって、時間があれば搭乗編・・・ 書けるかな?

RJFT 190100Z 28003KT 220V340 9999 BR SCT008 BKN010 04/02 Q1022


| | コメント (0) | トラックバック (0)

2015/02/21

パラダイス 天草エアライン 2015/2/18 wed

前日、熊本空港から九州産交バスを乗り継いで着いた場所は、天草市本渡。今日は、その本渡バスターミナルから出発です。

20150218_amx_00bus

早朝、生憎の曇りで、一日こんな状態ですかな。チョットがつかり。

20150218_amx_01bus

天草空港行きバスに揺られて、坂道を登りつめると・・・

20150218_amx_02rjda

天草空港に到着。石製のダッシュ8がお迎えです。

20150218_amx_03ja81am

2年前に新デザインになった「みぞか」号

AMX101 RJDA-RJFF JA81AM DHC-8-100

20150218_amx_04rjda

さっそく、カウンターで搭乗手続き。14年ぶりの天草エアライン搭乗。「一日親子イルカパラダイス2014」挑戦です。誓約書にサインして、福岡往復の101便と102便の搭乗券をもらいます。

20150218_amx_05rjda

セキュリティを通過して、エプロンへ。生憎天草空港のMETARは努力不足。

20150218_amx_06ja81am

大きなお目々がチャーミング。

20150218_amx_07ja81am

座席は、8E。くまモン席です。ゆっくり見れるのは、この機会だけです。

20150218_amx_08ja81am

機内での電子機器の利用制限が変更になりましたが、ダッシュ8は従来とおりなので、肝心の離着陸時は、NG。シュン。で、9000ftで巡航ですが、生憎の雲上で、地上は全く見れず。残念。

20150218_amx_09amx

機内には、お手製の案内資料のファイルがどっさり。ゆっくり見てる余裕が無かったので、(どーして?)一式コピーをもらっちゃいました。ありがとうございます。

RJFF 172330Z 31009KT 9999 FEW040 BKN050 08/M01 Q1018 RMK 1CU040 7SC050 A3007

20150218_amx_10ja81am

福岡も生憎の天候で、ILS36で着陸の模様でした。ここで給油です。第1ターミナルのフィンガーでJAL係員にピックアップされて、そのまま搭乗待合室へ。

20150218_amx_11rjff

予約時、なかなか空きがでなくて、苦慮した102便に搭乗します。

20150218_amx_12ja08fj

福岡空港も中小エアラインが増えて、FDAも当たり前に。

20150218_amx_13rjff

14番ゲートから歩いてスポットへ。福岡空港はスポット増設により、自走によるターンが無くなり、到着後にトーイングで向きが変えられています。

20150218_amx_14ja81am

AMX102 RJFF-RJDA JA81AM DHC-8-100

20150218_amx_15amx

今回は、最後列の艦長席・・ じゃなくって、右窓の10E。クラブのワンポイント切抜きが、おちゃめです。

20150218_amx_16amx

福岡から天草へも9000ftで巡航。上空から見たものは雲・くも・蜘蛛ちがぅぅ

20150218_amx_17amx

天草空港の電源車にもくまモンだー。

20150218_amx_18amx

なにやら、テレビクルーが・・・ どこなーん?

20150218_amx_19amx

次の搭乗手続きは、大阪往復が一括で、4枚をいただきます。

20150218_amx_20amx

ここにも、くまモン。

20150218_amx_21ja81am

AMX201 RJDA-RJFT JA81AM DHC-8-100

RJFT 180100Z 29007KT 9999 FEW025 SCT040 BKN050 07/M02 Q1018

20150218_amx_22ja81am

左エンジンには、「はるちゃん」

20150218_amx_23ja852a

熊本ではダッシュ8の兄弟も見れます。

20150218_amx_24rjft

熊本空港のマスコット「あそらくん」と「くまモン」

20150218_amx_25rjft

天草エアラインは、JALに運航支援を委託しているので、ターミナル東側7番登場口から。ジェットスターも同じ場所。

20150218_amx_26ja81am

また来たよ・・・

AMX801 RJFT-RJOO JA81AM DHC-8-100

20150218_amx_27amx

大阪伊丹行きは、9E。チョット寂し目。乗継以外の熊本からの利用増進を図らないとネ!

20150218_amx_28amx

伊丹線では時間が長いので、地元熊本の「みかんちゃん」と本物みかん。まさしく、くまモンサプライズ!

20150218_amx_29ja81am

伊丹到着は、12時ごろ。ここは少々ターンアラウンドが長いようで、昼食タイムですかな。

RJOO 180900Z 31004KT 270V360 9999 FEW020 SCT060 07/02 Q1013 RMK 1CU020 3SC060 A2991

20150218_amx_30ja81am

小生も機内でパクつきたいのを。

20150218_amx_31dhc8

はい、ここでもダッシュ8の兄弟。日本エアコミューターのQ400。

20150218_amx_32ja81am

AMX802 RJOO-RJFT JA81AM DHC-8-100

5たび搭乗。ここまでくると、まるで観光バスの乗り。チョットトイレ休憩みないなものです。

20150218_amx_33murakami

始発の福岡便からアテンドしてくださるのは、CAの村上さん。

20150218_amx_34murakami

お願いして、くまモンエプロンでパシャさせてもらいました。(ご本人承諾済み)

20150218_amx_35rjob

大阪ー熊本は瀬戸内海上空で雲がところどころ開けていて、遠く岡山空港を視認できた。

20150218_amx_36ja81am

しまなみ海道は、因島が良く見えました。

RJFT 180500Z 29007KT 260V330 9999 SCT040 BKN050 08/M02 Q1016

20150218_amx_37ja81am

熊本到着。天候はパラパラ振り。

20150218_amx_38rjft

熊本から天草に帰ります。

20150218_amx_39ja81am

よお、じゃなくて むお です。熊本-天草は巡航 4000ft 雲中飛行となりました。

AMX202 RJFT-RJDA JA81AM DHC-8-100

20150218_amx_40amx

かろうじて視認できた熊本駅。

20150218_amx_41ja81am

2度目の天草到着。ここで朝からの乗員さんがお終いです。キャプテンは、航空自衛隊出身元政府専用機機長 小松さん 副操縦士は、金子さん。CAは、スタイリッシュで笑顔が素敵な、村上茉莉子さんでした。ここまで、ありがとうございました。楽しいフライトでした。

20150218_amx_42rjda

エプロンから天草空港ビルに入るところで、くまモンがWELCOME。

この後は、続編につづく・・・

| | コメント (0) | トラックバック (0)

2015/02/20

熊本いくモン オレンジライナー 2015/2/17 tue

「はるか」で関西国際空港に到着して、出発時刻までしばらくあるので、展望ホールへ寄ってみました。これらは、続報で。さて、今回の搭乗は「JET☆」。最近、お世話になっています。 

20150217_rjbb_00ja16jj

JJP555 RJBB-RJFF JA16JJ A320-232

冬なので北風です。展望ホールから離陸側の上に逆光。胴体下に「JET☆」を改めて認識した。

20150217_rjbb_01ja01jj

JJP152 RJCC-RJBB JA01JJ A320-232

搭乗手続きを済ませて、搭乗待合室へ。小生の搭乗機が到着しました。

RJBB 170600Z 08006KT 9999 FEW025 09/04 Q1009 NOSIG

20150217_ja01jj_02rjbb

ほどなく搭乗して、右側から空撮開始です。電子機器の制限が変更され、航空マニアに空撮が戻ってきた。

20150217_ja01jj_03rjbb

RW06Rからテイクオフ

20150217_ja01jj_04rjbb

関空連絡橋も美しい。

20150217_ja01jj_05rjbe

MAIKO FIVE DEP. をトレースして神戸空港。この後、 HABAR TRN. を飛行したと思われるが、雲上で地上はほとんど見ることが出来ず。ガクッ。

20150217_ja01jj_06rjft

おそらくレーダーベクターでRW25ダウンウインドに誘導され、ビジュアルアプローチかな

20150217_ja01jj_07rjft

靄と逆光で微かに見えるだけですが、チョット補正してみました。

20150217_ja01jj_08rjft

ランディングしてリバース

20150217_ja01jj_09jgtakayubaru

隣接する陸上自衛隊高遊原駐屯地にも、また訪れたのですが、今回はパス。

RJFT 170700Z 28011KT 9999 SCT045 10/M00 Q1012

20150217_rjft_10ja01jj

JJP675 RJBB-RJFT JA01JJ A320-232

オープンの#7スポットへ

20150217_rjft_11kumamon

「モンジュール」能ある熊こと、くまモンに逢いに来たよ。YS見たいけど、時間がありません。またの機会に・・・ これから九州産交バスの旅です。

| | コメント (0) | トラックバック (0)

2006/03/08

空紀行 雨の熊本 2006/2/20

20060220_RJFT_JA737A20060220_RJFT_JA857920060220_RJFT_JA81AM神戸空港開港記念ツアーの戻りは、鹿児島から陸路熊本に移動して、熊本から神戸に帰りました。熊本は生憎の雨、CAT1ギリギリのコンディションで、CAT3で降りれる便はいいですが、それ以外は何度かミスドアプローチして、皆さん苦労していました。空自のC1もアプローチしてきましたが、轟音を立てて姿も見せずに、どこかにRTBしていきました。また、熊本にも乗り入れているSNAは、ダイバートする場合は宮崎だそうで、もってかれたら大変ですね。せめて福岡にしてくれー

左:SNA JA737A 中:ここでもOpen神戸 ANA JA8579 右:AMX JA81AM

<旅程> 2/18 RJBE-ANA419/JA8389-RJFK 2/19 鹿児島空港-人吉産交バス-人吉-JR九州/九千坊号-熊本 2/20 RJFT-JEX3344/JA8523-RJBE

20060218_RJFK_ANA41920060219_hitoyoshi_kyusenbou20060220_RJFT_JEX3344左:ANA419 JA8389 RJFK 中:九千坊号キハ31-13 人吉駅 右:JEX3344 JA8523 RJFT

| | コメント (0) | トラックバック (0)

その他のカテゴリー

BI Boading record aircraft Boading record ship FlightTracking lighthouse NAVAIDS RJNT LOG SKY MASSAGE US NAVY USMC うみ おか そら てつ アクシデント エアロック チーム室屋 三沢飛行場 上五島空港 下地島空港 下総飛行場 与那国空港 中標津空港 中部国際空港 久米島空港 五島福江空港 仙台空港 伊江島空港 但馬空港 佐賀空港 入間飛行場 八尾空港 八戸飛行場 出雲空港 函館空港 利尻空港 北九州空港 十勝飛行場 千歳飛行場 博物館 厚木飛行場 名古屋飛行場 喜界空港 嘉手納飛行場 場外 壱岐空港 大分空港 大湊飛行場 大阪国際空港 大館能代空港 天草空港 奄美空港 奥尻空港 宇部山口空港 宇都宮飛行場 宮古空港 宮崎空港 富山空港 小松島飛行場 小松飛行場 屋久島空港 山形空港 岐阜飛行場 岡山空港 岩国飛行場 帯広空港 広島空港 庄内空港 徳之島空港 徳島飛行場 成田国際空港 新潟空港 新田原飛行場 旭川空港 旭川飛行場 明野飛行場 普天間飛行場 木更津飛行場 札幌飛行場 東京国際空港 松山空港 松島飛行場 松本空港 横田飛行場 沖永良部空港 波照間空港 浜松飛行場 海上保安庁 海上自衛隊 海外 熊本空港 百里飛行場 相馬原飛行場 石垣空港 石見空港 礼文空港 神戸空港 福井空港 福岡空港 福島空港 秋田空港 種子島空港 空撮 立川飛行場 築城飛行場 美保飛行場 能登空港 舞鶴飛行場 航空自衛隊 芦屋飛行場 花巻空港 調布飛行場 警務消防 那覇空港 釧路空港 長崎空港 関西国際空港 陸上自衛隊 隠岐空港 霞ヶ浦飛行場 霞目飛行場 青森空港 静岡空港 静浜飛行場 飛行場跡 飛行船 鹿児島空港 鹿屋飛行場